createdAt,value
2018-10-05T00:08:19.462Z,7.76
2018-10-05T00:28:56.526Z,7.69
2018-10-05T00:49:36.718Z,7.44
2018-10-05T01:10:18.130Z,7.27
2018-10-05T01:30:56.166Z,7.22
2018-10-05T01:51:38.506Z,6.99
2018-10-05T02:12:16.847Z,6.69
2018-10-05T02:32:59.283Z,6.62
2018-10-05T02:53:43.369Z,6.46
2018-10-05T03:14:22.634Z,6.63
2018-10-05T03:35:00.972Z,6.54
2018-10-05T03:55:43.312Z,6.49
2018-10-05T04:16:20.427Z,6.35
2018-10-05T04:37:01.193Z,6.22
2018-10-05T04:57:42.033Z,5.86
2018-10-05T05:18:22.217Z,5.55
2018-10-05T05:39:06.712Z,5.41
2018-10-05T05:59:46.894Z,5.41
2018-10-05T06:20:24.316Z,5.37
2018-10-05T06:41:04.502Z,5.54
2018-10-05T07:01:46.883Z,5.70
2018-10-05T07:22:25.488Z,5.93
2018-10-05T07:43:01.397Z,6.34
2018-10-05T08:03:39.412Z,6.88
2018-10-05T08:24:14.690Z,7.27
2018-10-05T08:44:53.955Z,7.77
2018-10-05T09:05:29.807Z,8.25
2018-10-05T09:26:11.893Z,8.93
2018-10-05T09:46:52.063Z,9.57
2018-10-05T10:07:29.172Z,10.43
2018-10-05T10:28:11.585Z,11.11
2018-10-05T10:48:51.699Z,11.87
2018-10-05T11:09:34.955Z,12.76
2018-10-05T11:30:13.301Z,13.37
2018-10-05T11:50:55.642Z,13.95
2018-10-05T12:11:36.747Z,14.95
2018-10-05T12:32:14.189Z,15.62
2018-10-05T12:52:57.122Z,16.06
2018-10-05T13:13:35.772Z,16.65
2018-10-05T13:34:14.117Z,17.02
2018-10-05T13:54:53.996Z,17.91
2018-10-05T14:15:35.719Z,19.72
2018-10-05T14:36:10.684Z,19.68
2018-10-05T14:56:49.950Z,19.91
2018-10-05T15:17:28.293Z,20.00
2018-10-05T15:38:10.633Z,19.86
2018-10-05T15:58:52.171Z,19.08
2018-10-05T16:19:33.159Z,18.10
2018-10-05T16:40:10.865Z,17.46
2018-10-05T17:00:50.770Z,16.71
2018-10-05T17:21:29.381Z,15.89
2018-10-05T17:42:07.152Z,15.29
2018-10-05T18:02:45.491Z,14.66
2018-10-05T18:23:24.776Z,14.06
2018-10-05T18:44:07.388Z,13.75
2018-10-05T19:04:53.151Z,13.45
2018-10-05T19:25:37.007Z,13.08
2018-10-05T19:46:18.104Z,12.74
2018-10-05T20:07:03.215Z,12.52
2018-10-05T20:27:39.709Z,12.13
2018-10-05T20:48:19.893Z,11.85
2018-10-05T21:09:01.313Z,11.64
2018-10-05T21:29:37.507Z,11.44
2018-10-05T21:50:20.770Z,11.27
2018-10-05T22:11:03.358Z,10.92
2018-10-05T22:31:42.368Z,10.63
2018-10-05T22:52:21.633Z,10.50
2018-10-05T23:13:01.092Z,10.26
2018-10-05T23:33:41.089Z,10.06
2018-10-05T23:54:20.351Z,9.92
